createdAt,value
2018-07-25T00:00:20.631Z,1007.25
2018-07-25T00:00:46.772Z,1007.31
2018-07-25T00:01:12.936Z,1007.32
2018-07-25T00:01:39.107Z,1007.29
2018-07-25T00:02:05.249Z,1007.28
2018-07-25T00:02:31.383Z,1007.28
2018-07-25T00:02:57.536Z,1007.28
2018-07-25T00:03:23.663Z,1007.27
2018-07-25T00:03:49.804Z,1007.3
2018-07-25T00:04:15.944Z,1007.33
2018-07-25T00:04:42.081Z,1007.31
2018-07-25T00:05:08.217Z,1007.33
2018-07-25T00:05:34.362Z,1007.32
2018-07-25T00:06:00.527Z,1007.33
2018-07-25T00:06:26.669Z,1007.32
2018-07-25T00:06:52.803Z,1007.3
2018-07-25T00:07:18.940Z,1007.33
2018-07-25T00:07:45.087Z,1007.34
2018-07-25T00:08:11.229Z,1007.32
2018-07-25T00:08:37.368Z,1007.34
2018-07-25T00:09:03.508Z,1007.34
2018-07-25T00:09:29.650Z,1007.33
2018-07-25T00:09:55.794Z,1007.35
2018-07-25T00:10:21.933Z,1007.34
2018-07-25T00:10:48.070Z,1007.34
2018-07-25T00:11:14.209Z,1007.34
2018-07-25T00:11:40.350Z,1007.33
2018-07-25T00:12:06.516Z,1007.32
2018-07-25T00:12:32.645Z,1007.33
2018-07-25T00:12:58.791Z,1007.3
2018-07-25T00:13:24.927Z,1007.3
2018-07-25T00:13:51.091Z,1007.29
2018-07-25T00:14:17.227Z,1007.31
2018-07-25T00:14:43.373Z,1007.33
2018-07-25T00:15:09.513Z,1007.32
2018-07-25T00:15:35.658Z,1007.33
2018-07-25T00:16:01.795Z,1007.32
2018-07-25T00:16:27.934Z,1007.3
2018-07-25T00:16:54.071Z,1007.26
2018-07-25T00:17:20.210Z,1007.34
2018-07-25T00:17:46.352Z,1007.27
2018-07-25T00:18:12.490Z,1007.29
2018-07-25T00:18:38.630Z,1007.3
2018-07-25T00:19:04.773Z,1007.27
2018-07-25T00:19:30.910Z,1007.29
2018-07-25T00:19:57.073Z,1007.31
2018-07-25T00:20:23.238Z,1007.27
2018-07-25T00:20:49.407Z,1007.29
2018-07-25T00:21:15.551Z,1007.34
2018-07-25T00:21:41.691Z,1007.33
2018-07-25T00:22:07.830Z,1007.34
2018-07-25T00:22:33.997Z,1007.36
2018-07-25T00:23:00.139Z,1007.35
2018-07-25T00:23:26.279Z,1007.37
2018-07-25T00:23:52.423Z,1007.38
2018-07-25T00:24:18.580Z,1007.38
2018-07-25T00:24:44.723Z,1007.4
2018-07-25T00:25:10.865Z,1007.35
2018-07-25T00:25:37.029Z,1007.33
2018-07-25T00:26:03.175Z,1007.35
2018-07-25T00:26:29.309Z,1007.36
2018-07-25T00:26:55.451Z,1007.38
2018-07-25T00:27:21.593Z,1007.38
2018-07-25T00:27:47.740Z,1007.34
2018-07-25T00:28:13.894Z,1007.36
2018-07-25T00:28:40.060Z,1007.36
2018-07-25T00:29:06.193Z,1007.41
2018-07-25T00:29:32.326Z,1007.38
2018-07-25T00:29:58.469Z,1007.36
2018-07-25T00:30:24.612Z,1007.36
2018-07-25T00:30:50.758Z,1007.36
2018-07-25T00:31:16.892Z,1007.39
2018-07-25T00:31:43.037Z,1007.4
2018-07-25T00:32:09.176Z,1007.4
2018-07-25T00:32:35.317Z,1007.36
2018-07-25T00:33:01.460Z,1007.37
2018-07-25T00:33:27.603Z,1007.4
2018-07-25T00:33:53.751Z,1007.39
2018-07-25T00:34:19.913Z,1007.39
2018-07-25T00:34:46.043Z,1007.34
2018-07-25T00:35:12.182Z,1007.41
2018-07-25T00:35:38.330Z,1007.37
2018-07-25T00:36:04.469Z,1007.38
2018-07-25T00:36:30.617Z,1007.37
2018-07-25T00:36:56.755Z,1007.39
2018-07-25T00:37:22.900Z,1007.32
2018-07-25T00:37:49.032Z,1007.36
2018-07-25T00:38:15.168Z,1007.34
2018-07-25T00:38:41.309Z,1007.35
2018-07-25T00:39:07.473Z,1007.36
2018-07-25T00:39:33.611Z,1007.36
2018-07-25T00:39:59.755Z,1007.32
2018-07-25T00:40:25.918Z,1007.36
2018-07-25T00:40:52.053Z,1007.34
2018-07-25T00:41:18.197Z,1007.36
2018-07-25T00:41:44.359Z,1007.35
2018-07-25T00:42:10.521Z,1007.3
2018-07-25T00:42:36.659Z,1007.29
2018-07-25T00:43:02.804Z,1007.31
2018-07-25T00:43:28.940Z,1007.3
2018-07-25T00:43:55.112Z,1007.32
2018-07-25T00:44:21.257Z,1007.34
2018-07-25T00:44:47.855Z,1007.31
2018-07-25T00:45:14.000Z,1007.33
2018-07-25T00:45:40.141Z,1007.3
2018-07-25T00:46:06.300Z,1007.32
2018-07-25T00:46:32.443Z,1007.31
2018-07-25T00:46:58.599Z,1007.29
2018-07-25T00:47:24.742Z,1007.29
2018-07-25T00:47:50.892Z,1007.33
2018-07-25T00:48:17.024Z,1007.27
2018-07-25T00:48:43.163Z,1007.29
2018-07-25T00:49:09.308Z,1007.26
2018-07-25T00:49:35.448Z,1007.28
2018-07-25T00:50:01.610Z,1007.28
2018-07-25T00:50:27.753Z,1007.26
2018-07-25T00:50:53.895Z,1007.26
2018-07-25T00:51:20.065Z,1007.29
2018-07-25T00:51:46.203Z,1007.25
2018-07-25T00:52:12.352Z,1007.22
2018-07-25T00:52:38.496Z,1007.22
2018-07-25T00:53:04.635Z,1007.22
2018-07-25T00:53:30.771Z,1007.25
2018-07-25T00:53:56.907Z,1007.25
2018-07-25T00:54:23.052Z,1007.24
2018-07-25T00:54:49.194Z,1007.26
2018-07-25T00:55:15.330Z,1007.22
2018-07-25T00:55:41.481Z,1007.24
2018-07-25T00:56:07.624Z,1007.25
2018-07-25T00:56:33.768Z,1007.26
2018-07-25T00:56:59.909Z,1007.24
2018-07-25T00:57:26.045Z,1007.23
2018-07-25T00:57:52.187Z,1007.27
2018-07-25T00:58:18.349Z,1007.27
2018-07-25T00:58:44.491Z,1007.24
2018-07-25T00:59:10.636Z,1007.25
2018-07-25T00:59:36.777Z,1007.27
2018-07-25T01:00:02.943Z,1007.29
2018-07-25T01:00:29.076Z,1007.28
2018-07-25T01:00:55.212Z,1007.31
2018-07-25T01:01:21.351Z,1007.31
2018-07-25T01:01:47.520Z,1007.31
2018-07-25T01:02:13.657Z,1007.31
2018-07-25T01:02:39.798Z,1007.32
2018-07-25T01:03:05.936Z,1007.32
2018-07-25T01:03:32.099Z,1007.3
2018-07-25T01:03:58.264Z,1007.3
2018-07-25T01:04:24.399Z,1007.28
2018-07-25T01:04:50.542Z,1007.3
2018-07-25T01:05:16.679Z,1007.31
2018-07-25T01:05:42.821Z,1007.29
2018-07-25T01:06:08.991Z,1007.29
2018-07-25T01:06:35.146Z,1007.28
2018-07-25T01:07:01.287Z,1007.32
2018-07-25T01:07:27.427Z,1007.29
2018-07-25T01:07:53.560Z,1007.29
2018-07-25T01:08:19.731Z,1007.31
2018-07-25T01:08:45.875Z,1007.32
2018-07-25T01:09:12.035Z,1007.34
2018-07-25T01:09:38.169Z,1007.31
2018-07-25T01:10:04.313Z,1007.33
2018-07-25T01:10:30.454Z,1007.36
2018-07-25T01:10:56.598Z,1007.33
2018-07-25T01:11:22.731Z,1007.33
2018-07-25T01:11:48.884Z,1007.32
2018-07-25T01:12:15.024Z,1007.37
2018-07-25T01:12:41.168Z,1007.38
2018-07-25T01:13:07.307Z,1007.36
2018-07-25T01:13:33.491Z,1007.39
2018-07-25T01:13:59.628Z,1007.38
2018-07-25T01:14:25.766Z,1007.37
2018-07-25T01:14:51.904Z,1007.43
2018-07-25T01:15:18.042Z,1007.4
2018-07-25T01:15:44.185Z,1007.4
2018-07-25T01:16:10.327Z,1007.41
2018-07-25T01:16:36.470Z,1007.39
2018-07-25T01:17:02.603Z,1007.45
2018-07-25T01:17:28.743Z,1007.41
2018-07-25T01:17:54.879Z,1007.41
2018-07-25T01:18:21.019Z,1007.41
2018-07-25T01:18:47.156Z,1007.42
2018-07-25T01:19:13.303Z,1007.38
2018-07-25T01:19:39.481Z,1007.38
2018-07-25T01:20:05.581Z,1007.4
2018-07-25T01:20:31.762Z,1007.42
2018-07-25T01:20:57.906Z,1007.36
2018-07-25T01:21:24.039Z,1007.39
2018-07-25T01:21:50.179Z,1007.4
2018-07-25T01:22:16.341Z,1007.36
2018-07-25T01:22:42.479Z,1007.41
2018-07-25T01:23:08.619Z,1007.42
2018-07-25T01:23:34.760Z,1007.32
2018-07-25T01:24:00.901Z,1007.38
2018-07-25T01:24:27.039Z,1007.38
2018-07-25T01:24:53.185Z,1007.39
2018-07-25T01:25:19.342Z,1007.42
2018-07-25T01:25:45.483Z,1007.42
2018-07-25T01:26:11.629Z,1007.39
2018-07-25T01:26:37.769Z,1007.46
2018-07-25T01:27:03.901Z,1007.42
2018-07-25T01:27:30.042Z,1007.45
2018-07-25T01:27:56.180Z,1007.45
2018-07-25T01:28:22.320Z,1007.48
2018-07-25T01:28:48.474Z,1007.51
2018-07-25T01:29:14.611Z,1007.49
2018-07-25T01:29:40.748Z,1007.5
2018-07-25T01:30:06.890Z,1007.48
2018-07-25T01:30:33.028Z,1007.47
2018-07-25T01:30:59.165Z,1007.46
2018-07-25T01:31:25.319Z,1007.49
2018-07-25T01:31:51.457Z,1007.51
2018-07-25T01:32:17.626Z,1007.5
2018-07-25T01:32:43.796Z,1007.49
2018-07-25T01:33:09.940Z,1007.52
2018-07-25T01:33:36.084Z,1007.53
2018-07-25T01:34:02.269Z,1007.51
2018-07-25T01:34:28.411Z,1007.54
2018-07-25T01:34:54.549Z,1007.52
2018-07-25T01:35:20.692Z,1007.51
2018-07-25T01:35:46.827Z,1007.5
2018-07-25T01:36:12.975Z,1007.54
2018-07-25T01:36:39.129Z,1007.54
2018-07-25T01:37:05.269Z,1007.5
2018-07-25T01:37:31.409Z,1007.52
2018-07-25T01:37:57.548Z,1007.53
2018-07-25T01:38:23.695Z,1007.52
2018-07-25T01:38:49.831Z,1007.56
2018-07-25T01:39:15.970Z,1007.54
2018-07-25T01:39:42.135Z,1007.54
2018-07-25T01:40:08.280Z,1007.53
2018-07-25T01:40:34.413Z,1007.56
2018-07-25T01:41:00.551Z,1007.53
2018-07-25T01:41:26.770Z,1007.55
2018-07-25T01:41:52.913Z,1007.55
2018-07-25T01:42:19.052Z,1007.55
2018-07-25T01:42:45.193Z,1007.57
2018-07-25T01:43:11.337Z,1007.56
2018-07-25T01:43:37.471Z,1007.55
2018-07-25T01:44:03.614Z,1007.57
2018-07-25T01:44:29.751Z,1007.58
2018-07-25T01:44:55.893Z,1007.54
2018-07-25T01:45:22.053Z,1007.58
2018-07-25T01:45:48.189Z,1007.56
2018-07-25T01:46:14.320Z,1007.62
2018-07-25T01:46:40.463Z,1007.62
2018-07-25T01:47:06.605Z,1007.56
2018-07-25T01:47:32.744Z,1007.6
2018-07-25T01:47:58.911Z,1007.57
2018-07-25T01:48:25.046Z,1007.58
2018-07-25T01:48:51.186Z,1007.59
2018-07-25T01:49:17.323Z,1007.57
2018-07-25T01:49:43.465Z,1007.6
2018-07-25T01:50:09.607Z,1007.57
2018-07-25T01:50:35.764Z,1007.62
2018-07-25T01:51:01.905Z,1007.6
2018-07-25T01:51:28.043Z,1007.63
2018-07-25T01:51:54.219Z,1007.6
2018-07-25T01:52:20.383Z,1007.59
2018-07-25T01:52:46.527Z,1007.64
2018-07-25T01:53:12.664Z,1007.63
2018-07-25T01:53:38.806Z,1007.68
2018-07-25T01:54:04.948Z,1007.65
2018-07-25T01:54:31.082Z,1007.68
2018-07-25T01:54:57.219Z,1007.65
2018-07-25T01:55:23.389Z,1007.61
2018-07-25T01:55:49.523Z,1007.72
2018-07-25T01:56:15.669Z,1007.65
2018-07-25T01:56:41.834Z,1007.67
2018-07-25T01:57:07.989Z,1007.65
2018-07-25T01:57:34.146Z,1007.68
2018-07-25T01:58:00.288Z,1007.66
2018-07-25T01:58:26.424Z,1007.68
2018-07-25T01:58:52.599Z,1007.61
2018-07-25T01:59:18.735Z,1007.68
2018-07-25T01:59:44.879Z,1007.64
2018-07-25T02:00:11.051Z,1007.65
2018-07-25T02:00:37.185Z,1007.64
2018-07-25T02:01:03.344Z,1007.61
2018-07-25T02:01:29.540Z,1007.63
2018-07-25T02:01:55.644Z,1007.61
2018-07-25T02:02:21.819Z,1007.66
2018-07-25T02:02:47.915Z,1007.64
2018-07-25T02:03:14.078Z,1007.64
2018-07-25T02:03:40.245Z,1007.63
2018-07-25T02:04:06.381Z,1007.66
2018-07-25T02:04:32.530Z,1007.64
2018-07-25T02:04:58.667Z,1007.67
2018-07-25T02:05:24.812Z,1007.66
2018-07-25T02:05:50.949Z,1007.66
2018-07-25T02:06:17.091Z,1007.65
2018-07-25T02:06:43.256Z,1007.66
2018-07-25T02:07:09.392Z,1007.64
2018-07-25T02:07:35.534Z,1007.67
2018-07-25T02:08:01.684Z,1007.63
2018-07-25T02:08:27.857Z,1007.63
2018-07-25T02:08:53.992Z,1007.64
2018-07-25T02:09:20.145Z,1007.63
2018-07-25T02:09:46.311Z,1007.67
2018-07-25T02:10:12.499Z,1007.68
2018-07-25T02:10:38.637Z,1007.65
2018-07-25T02:11:04.777Z,1007.64
2018-07-25T02:11:30.942Z,1007.69
2018-07-25T02:11:57.101Z,1007.66
2018-07-25T02:12:23.264Z,1007.71
2018-07-25T02:12:49.429Z,1007.67
2018-07-25T02:13:15.573Z,1007.7
2018-07-25T02:13:41.732Z,1007.7
2018-07-25T02:14:07.879Z,1007.7
2018-07-25T02:14:34.017Z,1007.74
2018-07-25T02:15:00.202Z,1007.7
2018-07-25T02:15:26.338Z,1007.72
2018-07-25T02:15:52.509Z,1007.72
2018-07-25T02:16:18.638Z,1007.73
2018-07-25T02:16:44.778Z,1007.78
2018-07-25T02:17:10.914Z,1007.7
2018-07-25T02:17:37.086Z,1007.75
2018-07-25T02:18:03.227Z,1007.66
2018-07-25T02:18:29.367Z,1007.69
2018-07-25T02:18:55.528Z,1007.69
2018-07-25T02:19:21.696Z,1007.68
2018-07-25T02:19:47.832Z,1007.67
2018-07-25T02:20:13.964Z,1007.68
2018-07-25T02:20:40.106Z,1007.65
2018-07-25T02:21:06.266Z,1007.7
2018-07-25T02:21:32.406Z,1007.69
2018-07-25T02:21:58.540Z,1007.68
2018-07-25T02:22:24.688Z,1007.68
2018-07-25T02:22:50.820Z,1007.69
2018-07-25T02:23:17.015Z,1007.72
2018-07-25T02:23:43.152Z,1007.69
2018-07-25T02:24:09.340Z,1007.72
2018-07-25T02:24:35.485Z,1007.69
2018-07-25T02:25:01.626Z,1007.69
2018-07-25T02:25:27.763Z,1007.72
2018-07-25T02:25:53.938Z,1007.69
2018-07-25T02:26:20.074Z,1007.71
2018-07-25T02:26:46.219Z,1007.69
2018-07-25T02:27:12.355Z,1007.69
2018-07-25T02:27:38.496Z,1007.68
2018-07-25T02:28:04.637Z,1007.66
2018-07-25T02:28:30.798Z,1007.7
2018-07-25T02:28:56.936Z,1007.69
2018-07-25T02:29:23.078Z,1007.68
2018-07-25T02:29:49.218Z,1007.67
2018-07-25T02:30:15.411Z,1007.63
2018-07-25T02:30:41.596Z,1007.66
2018-07-25T02:31:07.794Z,1007.67
2018-07-25T02:31:33.929Z,1007.68
2018-07-25T02:32:00.072Z,1007.67
2018-07-25T02:32:26.205Z,1007.65
2018-07-25T02:32:52.344Z,1007.64
2018-07-25T02:33:18.502Z,1007.66
2018-07-25T02:33:44.673Z,1007.68
2018-07-25T02:34:10.869Z,1007.67
2018-07-25T02:34:37.053Z,1007.62
2018-07-25T02:35:03.253Z,1007.65
2018-07-25T02:35:29.419Z,1007.66
2018-07-25T02:35:55.566Z,1007.66
2018-07-25T02:36:21.757Z,1007.64
2018-07-25T02:36:47.917Z,1007.67
2018-07-25T02:37:14.092Z,1007.67
2018-07-25T02:37:40.227Z,1007.68
2018-07-25T02:38:06.377Z,1007.68
2018-07-25T02:38:32.599Z,1007.64
2018-07-25T02:38:58.763Z,1007.64
2018-07-25T02:39:24.950Z,1007.63
2018-07-25T02:39:51.144Z,1007.68
2018-07-25T02:40:17.285Z,1007.66
2018-07-25T02:40:43.423Z,1007.67
2018-07-25T02:41:09.617Z,1007.66
2018-07-25T02:41:35.789Z,1007.66
2018-07-25T02:42:01.936Z,1007.63
2018-07-25T02:42:28.216Z,1007.66
2018-07-25T02:42:54.300Z,1007.63
2018-07-25T02:43:20.485Z,1007.67
2018-07-25T02:43:46.696Z,1007.68
2018-07-25T02:44:12.810Z,1007.69
2018-07-25T02:44:38.976Z,1007.65
2018-07-25T02:45:05.134Z,1007.65
2018-07-25T02:45:31.279Z,1007.66
2018-07-25T02:45:57.444Z,1007.66
2018-07-25T02:46:23.612Z,1007.68
2018-07-25T02:46:49.769Z,1007.69
2018-07-25T02:47:15.907Z,1007.68
2018-07-25T02:47:42.049Z,1007.68
2018-07-25T02:48:08.217Z,1007.68
2018-07-25T02:48:34.378Z,1007.72
2018-07-25T02:49:00.519Z,1007.72
2018-07-25T02:49:26.684Z,1007.71
2018-07-25T02:49:52.848Z,1007.73
2018-07-25T02:50:18.989Z,1007.7
2018-07-25T02:50:45.154Z,1007.73
2018-07-25T02:51:11.295Z,1007.75
2018-07-25T02:51:37.456Z,1007.76
2018-07-25T02:52:03.638Z,1007.74
2018-07-25T02:52:29.779Z,1007.77
2018-07-25T02:52:55.938Z,1007.76
2018-07-25T02:53:22.075Z,1007.78
2018-07-25T02:53:48.210Z,1007.79
2018-07-25T02:54:14.427Z,1007.8
2018-07-25T02:54:40.563Z,1007.75
2018-07-25T02:55:06.692Z,1007.76
2018-07-25T02:55:32.837Z,1007.79
2018-07-25T02:55:58.980Z,1007.77
2018-07-25T02:56:25.122Z,1007.8
2018-07-25T02:56:51.334Z,1007.81
2018-07-25T02:57:17.423Z,1007.78
2018-07-25T02:57:43.608Z,1007.82
2018-07-25T02:58:09.770Z,1007.8
2018-07-25T02:58:35.913Z,1007.81
2018-07-25T02:59:02.081Z,1007.79
2018-07-25T02:59:28.220Z,1007.79
2018-07-25T02:59:54.412Z,1007.81
2018-07-25T03:00:20.546Z,1007.8
2018-07-25T03:00:46.723Z,1007.8
2018-07-25T03:01:12.896Z,1007.8
2018-07-25T03:01:39.021Z,1007.79
2018-07-25T03:02:05.164Z,1007.79
2018-07-25T03:02:31.345Z,1007.8
2018-07-25T03:02:57.506Z,1007.79
2018-07-25T03:03:23.643Z,1007.77
2018-07-25T03:03:49.829Z,1007.79
2018-07-25T03:04:15.971Z,1007.82
2018-07-25T03:04:42.164Z,1007.8
2018-07-25T03:05:08.305Z,1007.82
2018-07-25T03:05:34.463Z,1007.84
2018-07-25T03:06:00.639Z,1007.8
2018-07-25T03:06:26.853Z,1007.81
2018-07-25T03:06:53.013Z,1007.81
2018-07-25T03:07:19.160Z,1007.82
2018-07-25T03:07:45.343Z,1007.8
2018-07-25T03:08:11.503Z,1007.82
2018-07-25T03:08:37.670Z,1007.83
2018-07-25T03:09:03.846Z,1007.85
2018-07-25T03:09:30.118Z,1007.8
2018-07-25T03:09:56.344Z,1007.85
2018-07-25T03:10:22.662Z,1007.84
2018-07-25T03:10:48.846Z,1007.84
2018-07-25T03:11:14.982Z,1007.85
2018-07-25T03:11:41.148Z,1007.85
2018-07-25T03:12:07.286Z,1007.91
2018-07-25T03:12:33.445Z,1007.87
2018-07-25T03:12:59.612Z,1007.87
2018-07-25T03:13:25.782Z,1007.88
2018-07-25T03:13:51.942Z,1007.88
2018-07-25T03:14:18.134Z,1007.89
2018-07-25T03:14:44.302Z,1007.89
2018-07-25T03:15:10.457Z,1007.89
2018-07-25T03:15:36.616Z,1007.91
2018-07-25T03:16:02.754Z,1007.89
2018-07-25T03:16:28.924Z,1007.88
2018-07-25T03:16:55.088Z,1007.87
2018-07-25T03:17:21.273Z,1007.84
2018-07-25T03:17:47.469Z,1007.85
2018-07-25T03:18:13.615Z,1007.85
2018-07-25T03:18:39.768Z,1007.86
2018-07-25T03:19:05.970Z,1007.85
2018-07-25T03:19:32.164Z,1007.88
2018-07-25T03:19:58.323Z,1007.89
2018-07-25T03:20:24.485Z,1007.88
2018-07-25T03:20:50.649Z,1007.87
2018-07-25T03:21:16.824Z,1007.88
2018-07-25T03:21:42.989Z,1007.87
2018-07-25T03:22:09.130Z,1007.89
2018-07-25T03:22:35.319Z,1007.9
2018-07-25T03:23:01.485Z,1007.88
2018-07-25T03:23:27.645Z,1007.85
2018-07-25T03:23:53.809Z,1007.92
2018-07-25T03:24:19.945Z,1007.88
2018-07-25T03:24:46.085Z,1007.89
2018-07-25T03:25:12.269Z,1007.87
2018-07-25T03:25:38.429Z,1007.89
2018-07-25T03:26:04.623Z,1007.87
2018-07-25T03:26:30.786Z,1007.88
2018-07-25T03:26:56.978Z,1007.9
2018-07-25T03:27:23.112Z,1007.86
2018-07-25T03:27:49.250Z,1007.87
2018-07-25T03:28:15.421Z,1007.86
2018-07-25T03:28:41.557Z,1007.83
2018-07-25T03:29:07.691Z,1007.86
2018-07-25T03:29:33.828Z,1007.84
2018-07-25T03:29:59.968Z,1007.84
2018-07-25T03:30:26.137Z,1007.85
2018-07-25T03:30:52.327Z,1007.88
2018-07-25T03:31:18.536Z,1007.83
2018-07-25T03:31:44.625Z,1007.86
2018-07-25T03:32:10.777Z,1007.85
2018-07-25T03:32:36.919Z,1007.86
2018-07-25T03:33:03.051Z,1007.86
2018-07-25T03:33:29.193Z,1007.87
2018-07-25T03:33:55.333Z,1007.85
2018-07-25T03:34:21.493Z,1007.83
2018-07-25T03:34:47.632Z,1007.82
2018-07-25T03:35:13.769Z,1007.89
2018-07-25T03:35:39.905Z,1007.86
2018-07-25T03:36:06.045Z,1007.84
2018-07-25T03:36:32.185Z,1007.88
2018-07-25T03:36:58.326Z,1007.84
2018-07-25T03:37:24.463Z,1007.88
2018-07-25T03:37:50.601Z,1007.86
2018-07-25T03:38:16.745Z,1007.89
2018-07-25T03:38:42.922Z,1007.84
2018-07-25T03:39:09.062Z,1007.84
2018-07-25T03:39:35.245Z,1007.87
2018-07-25T03:40:01.377Z,1007.86
2018-07-25T03:40:27.511Z,1007.87
2018-07-25T03:40:53.658Z,1007.84
2018-07-25T03:41:19.801Z,1007.86
2018-07-25T03:41:45.948Z,1007.81
2018-07-25T03:42:12.090Z,1007.85
2018-07-25T03:42:38.258Z,1007.8
2018-07-25T03:43:04.393Z,1007.84
2018-07-25T03:43:30.566Z,1007.83
2018-07-25T03:43:56.709Z,1007.83
2018-07-25T03:44:22.845Z,1007.89
2018-07-25T03:44:48.991Z,1007.85
2018-07-25T03:45:15.152Z,1007.83
2018-07-25T03:45:41.294Z,1007.88
2018-07-25T03:46:07.431Z,1007.87
2018-07-25T03:46:33.571Z,1007.87
2018-07-25T03:46:59.708Z,1007.85
2018-07-25T03:47:25.855Z,1007.87
2018-07-25T03:47:51.989Z,1007.88
2018-07-25T03:48:18.150Z,1007.9
2018-07-25T03:48:44.292Z,1007.88
2018-07-25T03:49:10.437Z,1007.86
2018-07-25T03:49:36.572Z,1007.92
2018-07-25T03:50:02.711Z,1007.86
2018-07-25T03:50:28.846Z,1007.89
2018-07-25T03:50:54.987Z,1007.86
2018-07-25T03:51:21.130Z,1007.89
2018-07-25T03:51:47.275Z,1007.93
2018-07-25T03:52:13.411Z,1007.89
2018-07-25T03:52:39.553Z,1007.95
2018-07-25T03:53:05.707Z,1007.93
2018-07-25T03:53:31.852Z,1007.95
2018-07-25T03:53:57.980Z,1007.92
2018-07-25T03:54:24.127Z,1007.89
2018-07-25T03:54:50.281Z,1007.88
2018-07-25T03:55:16.406Z,1007.9
2018-07-25T03:55:42.544Z,1007.93
2018-07-25T03:56:08.691Z,1007.92
2018-07-25T03:56:34.826Z,1007.9
2018-07-25T03:57:00.974Z,1007.89
2018-07-25T03:57:27.110Z,1007.88
2018-07-25T03:57:53.243Z,1007.94
2018-07-25T03:58:19.384Z,1007.92
2018-07-25T03:58:45.525Z,1007.9
2018-07-25T03:59:11.663Z,1007.92
2018-07-25T03:59:37.795Z,1007.91
2018-07-25T04:00:03.948Z,1007.89
2018-07-25T04:00:30.078Z,1007.91
2018-07-25T04:00:56.222Z,1007.93
2018-07-25T04:01:22.359Z,1007.93
2018-07-25T04:01:48.497Z,1007.92
2018-07-25T04:02:14.635Z,1007.94
2018-07-25T04:02:40.904Z,1007.92
2018-07-25T04:03:06.984Z,1007.93
2018-07-25T04:03:33.148Z,1007.93
2018-07-25T04:03:59.288Z,1007.92
2018-07-25T04:04:25.430Z,1007.93
2018-07-25T04:04:51.624Z,1007.89
2018-07-25T04:05:17.757Z,1007.92
2018-07-25T04:05:43.924Z,1007.9
2018-07-25T04:06:10.066Z,1007.93
2018-07-25T04:06:36.199Z,1007.91
2018-07-25T04:07:02.338Z,1007.9
2018-07-25T04:07:28.479Z,1007.9
2018-07-25T04:07:54.608Z,1007.93
2018-07-25T04:08:20.849Z,1007.86
2018-07-25T04:08:46.938Z,1007.88
2018-07-25T04:09:13.115Z,1007.92
2018-07-25T04:09:39.241Z,1007.91
2018-07-25T04:10:05.384Z,1007.89
2018-07-25T04:10:31.524Z,1007.89
2018-07-25T04:10:57.667Z,1007.88
2018-07-25T04:11:23.804Z,1007.91
2018-07-25T04:11:49.965Z,1007.92
2018-07-25T04:12:16.107Z,1007.91
2018-07-25T04:12:42.246Z,1007.92
2018-07-25T04:13:08.388Z,1007.88
2018-07-25T04:13:34.523Z,1007.93
2018-07-25T04:14:00.664Z,1007.92
2018-07-25T04:14:26.832Z,1007.93
2018-07-25T04:14:52.968Z,1007.93
2018-07-25T04:15:19.111Z,1007.94
2018-07-25T04:15:45.247Z,1007.97
2018-07-25T04:16:11.409Z,1007.95
2018-07-25T04:16:37.546Z,1007.94
2018-07-25T04:17:03.716Z,1008
2018-07-25T04:17:29.854Z,1008
2018-07-25T04:17:55.984Z,1008.02
2018-07-25T04:18:22.125Z,1008.01
2018-07-25T04:18:48.268Z,1007.98
2018-07-25T04:19:14.421Z,1008
2018-07-25T04:19:40.563Z,1007.99
2018-07-25T04:20:06.707Z,1007.99
2018-07-25T04:20:32.843Z,1007.96
2018-07-25T04:20:59.019Z,1008
2018-07-25T04:21:25.186Z,1007.99
2018-07-25T04:21:51.318Z,1008.02
2018-07-25T04:22:17.456Z,1007.98
2018-07-25T04:22:43.597Z,1008
2018-07-25T04:23:09.781Z,1008.01
2018-07-25T04:23:35.918Z,1007.98
2018-07-25T04:24:02.054Z,1008.01
2018-07-25T04:24:28.193Z,1008
2018-07-25T04:24:54.334Z,1007.98
2018-07-25T04:25:20.494Z,1008.03
2018-07-25T04:25:46.639Z,1008
2018-07-25T04:26:12.771Z,1007.99
2018-07-25T04:26:38.915Z,1007.96
2018-07-25T04:27:05.052Z,1008.02
2018-07-25T04:27:31.193Z,1008
2018-07-25T04:27:57.323Z,1008.04
2018-07-25T04:28:23.469Z,1008.01
2018-07-25T04:28:49.620Z,1008.03
2018-07-25T04:29:15.793Z,1008.05
2018-07-25T04:29:41.933Z,1008.02
2018-07-25T04:30:08.076Z,1007.99
2018-07-25T04:30:34.209Z,1007.99
2018-07-25T04:31:00.347Z,1007.99
2018-07-25T04:31:26.493Z,1008.01
2018-07-25T04:31:52.638Z,1008.04
2018-07-25T04:32:18.773Z,1008.01
2018-07-25T04:32:44.912Z,1008.03
2018-07-25T04:33:11.054Z,1008.02
2018-07-25T04:33:37.217Z,1008.05
2018-07-25T04:34:03.352Z,1008.08
2018-07-25T04:34:29.495Z,1008.03
2018-07-25T04:34:55.638Z,1008.03
2018-07-25T04:35:21.784Z,1008.04
2018-07-25T04:35:47.916Z,1008.05
2018-07-25T04:36:14.058Z,1008.08
2018-07-25T04:36:40.195Z,1008.07
2018-07-25T04:37:06.334Z,1008.09
2018-07-25T04:37:32.524Z,1008.07
2018-07-25T04:37:58.667Z,1008.07
2018-07-25T04:38:24.810Z,1008.09
2018-07-25T04:38:50.951Z,1008.13
2018-07-25T04:39:17.115Z,1008.11
2018-07-25T04:39:43.260Z,1008.14
2018-07-25T04:40:09.402Z,1008.13
2018-07-25T04:40:35.535Z,1008.13
2018-07-25T04:41:01.683Z,1008.12
2018-07-25T04:41:27.824Z,1008.13
2018-07-25T04:41:53.987Z,1008.12
2018-07-25T04:42:20.125Z,1008.09
2018-07-25T04:42:46.343Z,1008.15
2018-07-25T04:43:12.446Z,1008.17
2018-07-25T04:43:38.587Z,1008.11
2018-07-25T04:44:04.729Z,1008.16
2018-07-25T04:44:30.913Z,1008.19
2018-07-25T04:44:57.097Z,1008.15
2018-07-25T04:45:23.267Z,1008.13
2018-07-25T04:45:49.431Z,1008.14
2018-07-25T04:46:15.646Z,1008.14
2018-07-25T04:46:41.836Z,1008.17
2018-07-25T04:47:07.898Z,1008.15
2018-07-25T04:47:34.040Z,1008.15
2018-07-25T04:48:00.182Z,1008.16
2018-07-25T04:48:26.345Z,1008.14
2018-07-25T04:48:52.506Z,1008.14
2018-07-25T04:49:18.675Z,1008.11
2018-07-25T04:49:44.817Z,1008.17
2018-07-25T04:50:10.985Z,1008.15
2018-07-25T04:50:37.169Z,1008.16
2018-07-25T04:51:03.316Z,1008.15
2018-07-25T04:51:29.451Z,1008.16
2018-07-25T04:51:55.589Z,1008.19
2018-07-25T04:52:21.738Z,1008.19
2018-07-25T04:52:47.902Z,1008.17
2018-07-25T04:53:14.037Z,1008.19
2018-07-25T04:53:40.211Z,1008.18
2018-07-25T04:54:06.349Z,1008.2
2018-07-25T04:54:32.488Z,1008.19
2018-07-25T04:54:58.652Z,1008.15
2018-07-25T04:55:24.798Z,1008.18
2018-07-25T04:55:50.937Z,1008.19
2018-07-25T04:56:17.080Z,1008.21
2018-07-25T04:56:43.259Z,1008.2
2018-07-25T04:57:09.421Z,1008.17
2018-07-25T04:57:35.591Z,1008.13
2018-07-25T04:58:01.756Z,1008.18
2018-07-25T04:58:27.898Z,1008.19
2018-07-25T04:58:54.075Z,1008.23
2018-07-25T04:59:20.246Z,1008.2
2018-07-25T04:59:46.424Z,1008.2
2018-07-25T05:00:12.570Z,1008.19
2018-07-25T05:00:38.709Z,1008.21
2018-07-25T05:01:04.876Z,1008.22
2018-07-25T05:01:31.009Z,1008.22
2018-07-25T05:01:57.154Z,1008.22
2018-07-25T05:02:23.319Z,1008.21
2018-07-25T05:02:49.473Z,1008.21
2018-07-25T05:03:15.640Z,1008.23
2018-07-25T05:03:41.783Z,1008.25
2018-07-25T05:04:07.917Z,1008.26
2018-07-25T05:04:34.058Z,1008.28
2018-07-25T05:05:00.198Z,1008.27
2018-07-25T05:05:26.362Z,1008.27
2018-07-25T05:05:52.501Z,1008.28
2018-07-25T05:06:18.647Z,1008.28
2018-07-25T05:06:44.786Z,1008.25
2018-07-25T05:07:10.947Z,1008.27
2018-07-25T05:07:37.094Z,1008.3
2018-07-25T05:08:03.235Z,1008.35
2018-07-25T05:08:29.379Z,1008.31
2018-07-25T05:08:55.542Z,1008.32
2018-07-25T05:09:21.679Z,1008.29
2018-07-25T05:09:47.818Z,1008.31
2018-07-25T05:10:13.965Z,1008.29
2018-07-25T05:10:40.123Z,1008.33
2018-07-25T05:11:06.290Z,1008.31
2018-07-25T05:11:32.432Z,1008.35
2018-07-25T05:11:58.569Z,1008.31
2018-07-25T05:12:24.713Z,1008.35
2018-07-25T05:12:50.850Z,1008.33
2018-07-25T05:13:16.984Z,1008.34
2018-07-25T05:13:43.147Z,1008.36
2018-07-25T05:14:09.309Z,1008.37
2018-07-25T05:14:35.447Z,1008.33
2018-07-25T05:15:01.592Z,1008.32
2018-07-25T05:15:27.734Z,1008.35
2018-07-25T05:15:53.898Z,1008.34
2018-07-25T05:16:20.037Z,1008.36
2018-07-25T05:16:46.174Z,1008.37
2018-07-25T05:17:12.310Z,1008.39
2018-07-25T05:17:38.452Z,1008.38